Sula, Montana
Current Conditions -  °F | °C
As of 1:35 PM on Monday 22 Dec 2014 (Local Time) from KSMN Reporting Station
Broken Clouds Broken Clouds  
Wind Chill: 32°   Ceiling: 6000
Heat Index: 36°   Visibility: 10mi
Dew Point: 28°   Wind: 5mph
Humidity: 75%   Direction: 170°S
Pressure: 30.05"   Gusts: NA
Location:  45.83°N, 113.98°W
Report Text: KSMN 222035Z AUTO 17004KT 10SM FEW048 BKN060 BKN070 02/M02 A3005 RMK AO1
Loading
Personal Weather Stations






























Interactive Weather Map New forecast layout! Learn more

10-Day Weather Forecast

Advertisements
Track Severe Weather on mobile